createdAt,value
2023-02-09T00:00:43.095Z,14
2023-02-09T00:05:59.316Z,21
2023-02-09T00:16:32.276Z,15
2023-02-09T00:21:48.611Z,17
2023-02-09T00:27:05.047Z,18
2023-02-09T00:32:21.483Z,16
2023-02-09T00:37:37.869Z,15
2023-02-09T00:42:54.306Z,15
2023-02-09T00:48:10.481Z,28
2023-02-09T00:53:26.952Z,19
2023-02-09T00:58:43.380Z,19
2023-02-09T01:03:59.803Z,16
2023-02-09T01:09:15.978Z,24
2023-02-09T01:14:32.460Z,22
2023-02-09T01:19:48.606Z,14
2023-02-09T01:25:05.028Z,18
2023-02-09T01:30:21.470Z,22
2023-02-09T01:35:37.925Z,14
2023-02-09T01:40:54.357Z,16
2023-02-09T01:46:10.831Z,16
2023-02-09T01:51:27.190Z,16
2023-02-09T01:56:43.652Z,13
2023-02-09T02:02:00.103Z,14
2023-02-09T02:07:16.252Z,19
2023-02-09T02:12:32.646Z,18
2023-02-09T02:17:49.060Z,15
2023-02-09T02:23:05.509Z,15
2023-02-09T02:28:21.999Z,15
2023-02-09T02:33:38.337Z,15
2023-02-09T02:38:54.785Z,19
2023-02-09T02:44:11.235Z,26
2023-02-09T02:49:27.668Z,15
2023-02-09T02:54:44.189Z,17
2023-02-09T03:00:00.638Z,20
2023-02-09T03:05:17.209Z,14
2023-02-09T03:10:33.522Z,19
2023-02-09T03:15:50.087Z,17
2023-02-09T03:21:06.411Z,19
2023-02-09T03:26:22.916Z,19
2023-02-09T03:31:39.414Z,19
2023-02-09T03:36:55.989Z,17
2023-02-09T03:42:12.451Z,21
2023-02-09T03:47:28.922Z,20
2023-02-09T03:52:45.364Z,20
2023-02-09T03:58:01.781Z,20
2023-02-09T04:03:18.230Z,18
2023-02-09T04:08:34.689Z,15
2023-02-09T04:13:51.129Z,18
2023-02-09T04:19:07.542Z,19
2023-02-09T04:24:24.014Z,21
2023-02-09T04:29:40.454Z,16
2023-02-09T04:34:56.897Z,17
2023-02-09T04:40:13.302Z,18
2023-02-09T04:45:29.792Z,18
2023-02-09T04:50:46.544Z,22
2023-02-09T04:56:02.659Z,18
2023-02-09T05:01:19.512Z,19
2023-02-09T05:06:35.861Z,19
2023-02-09T05:11:52.343Z,21
2023-02-09T05:17:08.781Z,26
2023-02-09T05:22:25.704Z,24
2023-02-09T05:27:42.140Z,24
2023-02-09T05:32:58.620Z,27
2023-02-09T05:38:14.799Z,23
2023-02-09T05:43:31.225Z,21
2023-02-09T05:48:47.655Z,25
2023-02-09T05:54:04.155Z,19
2023-02-09T05:59:20.600Z,25
2023-02-09T06:04:37.049Z,20
2023-02-09T06:09:53.450Z,19
2023-02-09T06:15:09.922Z,20
2023-02-09T06:20:26.356Z,22
2023-02-09T06:25:42.824Z,22
2023-02-09T06:30:59.427Z,24
2023-02-09T06:36:15.758Z,24
2023-02-09T06:41:32.205Z,27
2023-02-09T06:46:48.642Z,24
2023-02-09T06:52:05.783Z,30
2023-02-09T06:57:22.222Z,35
2023-02-09T07:02:38.437Z,28
2023-02-09T07:07:54.903Z,24
2023-02-09T07:13:11.831Z,35
2023-02-09T07:18:28.006Z,27
2023-02-09T07:23:44.484Z,38
2023-02-09T07:29:00.904Z,26
2023-02-09T07:34:17.324Z,25
2023-02-09T07:39:33.765Z,38
2023-02-09T07:44:50.223Z,21
2023-02-09T07:50:06.639Z,22
2023-02-09T07:55:23.028Z,24
2023-02-09T08:00:39.437Z,22
2023-02-09T08:05:55.867Z,21
2023-02-09T08:11:12.280Z,22
2023-02-09T08:16:29.309Z,29
2023-02-09T08:21:45.653Z,24
2023-02-09T08:27:02.061Z,40
2023-02-09T08:32:18.583Z,33
2023-02-09T08:37:34.889Z,22
2023-02-09T08:42:51.022Z,36
2023-02-09T08:48:07.424Z,21
2023-02-09T08:53:23.836Z,17
2023-02-09T08:58:40.206Z,17
2023-02-09T09:03:56.612Z,19
2023-02-09T09:09:12.951Z,18
2023-02-09T09:14:29.374Z,16
2023-02-09T09:19:46.108Z,19
2023-02-09T09:25:02.469Z,21
2023-02-09T09:30:18.825Z,18
2023-02-09T09:35:35.263Z,18
2023-02-09T09:40:51.619Z,16
2023-02-09T09:46:08.259Z,16
2023-02-09T09:51:24.355Z,17
2023-02-09T09:56:40.751Z,17
2023-02-09T10:01:57.117Z,18
2023-02-09T10:07:13.484Z,17
2023-02-09T10:12:30.593Z,17
2023-02-09T10:17:46.966Z,15
2023-02-09T10:23:03.362Z,17
2023-02-09T10:28:19.813Z,15
2023-02-09T10:33:36.096Z,17
2023-02-09T10:38:52.441Z,17
2023-02-09T10:44:08.895Z,15
2023-02-09T10:49:25.578Z,22
2023-02-09T10:54:42.548Z,34
2023-02-09T10:59:58.899Z,22
2023-02-09T11:05:15.328Z,19
2023-02-09T11:10:31.691Z,16
2023-02-09T11:15:48.513Z,20
2023-02-09T11:21:04.403Z,20
2023-02-09T11:26:20.786Z,18
2023-02-09T11:31:37.230Z,17
2023-02-09T11:36:54.115Z,24
2023-02-09T11:42:11.047Z,22
2023-02-09T11:47:27.668Z,17
2023-02-09T11:52:44.660Z,17
2023-02-09T11:58:01.020Z,17
2023-02-09T12:03:17.567Z,17
2023-02-09T12:08:33.736Z,15
2023-02-09T12:13:50.491Z,14
2023-02-09T12:19:06.538Z,17
2023-02-09T12:24:23.468Z,20
2023-02-09T12:29:39.831Z,15
2023-02-09T12:34:56.243Z,16
2023-02-09T12:40:12.635Z,15
2023-02-09T12:45:29.110Z,15
2023-02-09T12:50:45.399Z,17
2023-02-09T12:56:01.823Z,15
2023-02-09T13:01:18.322Z,13
2023-02-09T13:06:34.584Z,16
2023-02-09T13:11:50.984Z,17
2023-02-09T13:17:07.403Z,17
2023-02-09T13:22:23.811Z,17
2023-02-09T13:27:40.186Z,17
2023-02-09T13:32:56.608Z,18
2023-02-09T13:38:12.969Z,15
2023-02-09T13:43:29.391Z,15
2023-02-09T13:48:45.864Z,16
2023-02-09T13:54:02.339Z,21
2023-02-09T13:59:18.641Z,15
2023-02-09T14:04:35.089Z,18
2023-02-09T14:09:51.446Z,15
2023-02-09T14:15:07.893Z,15
2023-02-09T14:20:24.631Z,18
2023-02-09T14:25:41.015Z,21
2023-02-09T14:30:58.160Z,20
2023-02-09T14:36:15.143Z,27
2023-02-09T14:41:31.550Z,18
2023-02-09T14:46:47.957Z,19
2023-02-09T14:52:04.371Z,18
2023-02-09T14:57:20.765Z,23
2023-02-09T15:02:37.856Z,20
2023-02-09T15:07:54.192Z,25
2023-02-09T15:13:11.935Z,19
2023-02-09T15:18:27.049Z,22
2023-02-09T15:23:43.183Z,20
2023-02-09T15:28:59.320Z,19
2023-02-09T15:34:15.791Z,21
2023-02-09T15:39:32.211Z,20
2023-02-09T15:44:48.621Z,20
2023-02-09T15:50:05.105Z,22
2023-02-09T15:55:21.745Z,18
2023-02-09T16:00:37.981Z,21
2023-02-09T16:05:54.400Z,20
2023-02-09T16:11:10.884Z,18
2023-02-09T16:16:27.328Z,17
2023-02-09T16:21:43.717Z,21
2023-02-09T16:27:00.350Z,23
2023-02-09T16:32:16.825Z,24
2023-02-09T16:37:33.216Z,23
2023-02-09T16:42:49.663Z,22
2023-02-09T16:48:06.073Z,24
2023-02-09T16:53:22.477Z,19
2023-02-09T16:58:38.888Z,26
2023-02-09T17:03:55.419Z,24
2023-02-09T17:09:11.827Z,35
2023-02-09T17:14:28.199Z,31
2023-02-09T17:19:47.919Z,26
2023-02-09T17:25:01.074Z,34
2023-02-09T17:30:18.120Z,38
2023-02-09T17:36:03.633Z,44
2023-02-09T17:40:50.764Z,54
2023-02-09T17:46:07.226Z,30
2023-02-09T17:51:24.131Z,36
2023-02-09T17:56:40.346Z,34
2023-02-09T18:01:56.799Z,32
2023-02-09T18:07:13.204Z,32
2023-02-09T18:12:29.651Z,29
2023-02-09T18:17:45.850Z,29
2023-02-09T18:23:02.321Z,26
2023-02-09T18:28:18.776Z,29
2023-02-09T18:33:35.711Z,33
2023-02-09T18:38:52.155Z,29
2023-02-09T18:44:08.605Z,33
2023-02-09T18:49:25.057Z,33
2023-02-09T18:54:41.971Z,32
2023-02-09T18:59:58.413Z,31
2023-02-09T19:05:14.901Z,34
2023-02-09T19:10:31.347Z,48
2023-02-09T19:15:48.148Z,56
2023-02-09T19:21:04.283Z,63
2023-02-09T19:26:21.454Z,65
2023-02-09T19:31:38.013Z,65
2023-02-09T19:36:54.192Z,57
2023-02-09T19:42:10.424Z,57
2023-02-09T19:47:26.662Z,62
2023-02-09T19:52:43.535Z,76
2023-02-09T19:58:00.004Z,63
2023-02-09T20:03:17.170Z,78
2023-02-09T20:08:33.561Z,64
2023-02-09T20:13:50.215Z,58
2023-02-09T20:19:06.619Z,55
2023-02-09T20:24:23.879Z,62
2023-02-09T20:29:40.542Z,61
2023-02-09T20:34:57.070Z,66
2023-02-09T20:40:14.217Z,72
2023-02-09T20:45:31.504Z,66
2023-02-09T20:50:49.013Z,65
2023-02-09T20:56:05.113Z,64
2023-02-09T21:01:21.727Z,63
2023-02-09T21:06:38.446Z,66
2023-02-09T21:11:55.261Z,60
2023-02-09T21:17:12.366Z,60
2023-02-09T21:22:28.888Z,51
2023-02-09T21:27:45.086Z,65
2023-02-09T21:33:02.160Z,67
2023-02-09T21:38:18.637Z,62
2023-02-09T21:43:35.632Z,58
2023-02-09T21:48:51.818Z,56
2023-02-09T21:54:08.286Z,51
2023-02-09T21:59:24.966Z,50
2023-02-09T22:04:42.059Z,58
2023-02-09T22:09:58.866Z,51
2023-02-09T22:15:15.825Z,48
2023-02-09T22:20:32.924Z,50
2023-02-09T22:25:50.002Z,53
2023-02-09T22:31:06.248Z,51
2023-02-09T22:36:23.248Z,57
2023-02-09T22:41:39.694Z,52
2023-02-09T22:46:56.526Z,60
2023-02-09T22:52:13.018Z,54
2023-02-09T22:57:29.439Z,53
2023-02-09T23:02:45.951Z,45
2023-02-09T23:08:02.400Z,49
2023-02-09T23:13:18.862Z,49
2023-02-09T23:18:35.351Z,50
2023-02-09T23:23:51.807Z,47
2023-02-09T23:29:08.815Z,50
2023-02-09T23:34:25.869Z,52
2023-02-09T23:39:42.322Z,48
2023-02-09T23:44:58.788Z,47
2023-02-09T23:50:15.204Z,39
2023-02-09T23:55:31.701Z,59
